Search for airport 
image banner adimage banner adimage banner ad
image banner ad

6PN9 - Mc Donald's

Located in Brandonville, United States

ICAO - 6PN9, IATA -

Data provided by Airmate  

General information

Coordinates: N40°53'10" W76°9'13"
Elevation is 1200 feet MSL.
Magnetic variation is -11° East
View others Airports in Pennsylvania

Operational data

Special qualification required
Current time UTC:
Current local time:
Weather at : KHZL - Hazleton Rgnl ( 17 km )
METAR: KHZL 182355Z AUTO 00000KT 10SM SCT085 21/05 A3032 RMK AO2
View NOTAMs / SUP AIP / TFR affecting this airport [VIEW]
Communications frequencies: [VIEW]

Runways:

RWY identifierQFULength (ft)Width (ft)SurfaceLDA (ft)
102000120GRASS
282000120GRASS

Airport contact information

Address: Brandonville United States

Satellite view of 6PN9